Time;durP1;ratioP1;P1;durP2;ratioP2;P2;SDS_P1;SDS_P2;PMS_P1;PMS_P2;Temp;Humidity;BMP_temperature;BMP_pressure;BME280_temperature;BME280_humidity;BME280_pressure;Samples;Min_cycle;Max_cycle;Signal;HPM_P1;HPM_P2
2022/06/01 00:01:02;;;;;;;0.50;0.50;;;12.00;99.90;11.50;101194.00;;;;5035367;28;20265;-61
2022/06/01 00:03:40;;;;;;;0.70;0.70;;;11.90;99.90;11.40;101226.00;;;;5035573;28;20167;-63
2022/06/01 00:06:07;;;;;;;0.87;0.87;;;11.80;99.90;11.00;101227.00;;;;5050775;28;20186;-63
2022/06/01 00:08:34;;;;;;;0.30;0.30;;;11.60;99.90;10.90;101222.00;;;;5049883;28;20177;-62
2022/06/01 00:11:00;;;;;;;0.40;0.40;;;11.50;99.90;10.90;101223.00;;;;5035239;28;20170;-63
2022/06/01 00:13:27;;;;;;;0.40;0.40;;;11.40;99.90;11.20;101223.00;;;;5035157;28;20163;-63
2022/06/01 00:15:54;;;;;;;0.40;0.40;;;11.50;99.90;11.40;101228.00;;;;5051102;28;20183;-62
2022/06/01 00:18:22;;;;;;;0.40;0.40;;;11.60;99.90;11.30;101223.00;;;;5049945;28;20195;-63
2022/06/01 00:20:49;;;;;;;0.43;0.43;;;11.60;99.90;11.50;101210.00;;;;5033308;28;20178;-62
2022/06/01 00:23:18;;;;;;;0.40;0.40;;;11.70;99.90;11.00;101222.00;;;;5035281;28;20184;-62
2022/06/01 00:25:44;;;;;;;0.40;0.40;;;11.50;99.90;11.10;101217.00;;;;5050979;28;20203;-62
2022/06/01 00:28:10;;;;;;;1.27;1.23;;;11.50;99.90;10.80;101222.00;;;;5049631;28;20171;-62
2022/06/01 00:30:39;;;;;;;2.10;2.00;;;11.40;99.90;10.70;101216.00;;;;5034060;28;20186;-62
2022/06/01 00:33:05;;;;;;;0.40;0.40;;;11.30;99.90;10.70;101211.00;;;;5035331;28;20291;-62
2022/06/01 00:35:31;;;;;;;1.03;1.03;;;11.20;99.90;10.80;101221.00;;;;5035030;28;20177;-62
2022/06/01 00:37:57;;;;;;;0.40;0.40;;;11.20;99.90;10.80;101218.00;;;;5034266;28;20571;-62
2022/06/01 00:40:26;;;;;;;0.40;0.40;;;11.20;99.90;10.60;101222.00;;;;5050392;28;20177;-62
2022/06/01 00:42:57;;;;;;;0.73;0.73;;;11.10;99.90;10.70;101213.00;;;;5034715;28;20184;-62
2022/06/01 00:45:29;;;;;;;0.47;0.47;;;11.10;99.90;10.90;101211.00;;;;5034661;28;20180;-62
2022/06/01 00:47:58;;;;;;;0.40;0.40;;;11.10;99.90;11.50;101217.00;;;;5033668;28;20186;-62
2022/06/01 00:50:31;;;;;;;0.70;0.70;;;11.40;99.90;11.20;101213.00;;;;5033514;28;20646;-63
2022/06/01 00:53:16;;;;;;;0.43;0.43;;;11.40;99.90;11.30;101186.00;;;;5050387;28;20292;-60
2022/06/01 00:55:50;;;;;;;0.50;0.50;;;11.50;99.90;10.70;101214.00;;;;5033053;28;20188;-62
2022/06/01 00:58:25;;;;;;;1.23;1.23;;;11.30;99.90;10.30;101227.00;;;;5049584;28;20228;-62
2022/06/01 01:00:56;;;;;;;0.50;0.50;;;11.10;99.90;10.40;101223.00;;;;5034396;28;20172;-63
2022/06/01 01:03:25;;;;;;;0.40;0.40;;;10.90;99.90;11.00;101230.00;;;;5034207;28;20209;-63
2022/06/01 01:06:20;;;;;;;0.40;0.40;;;11.10;99.90;10.90;101225.00;;;;5035241;28;20187;-63
2022/06/01 01:08:48;;;;;;;0.40;0.40;;;11.30;99.90;10.80;101219.00;;;;5035290;28;20648;-63
2022/06/01 01:11:20;;;;;;;0.40;0.40;;;11.20;99.90;11.20;101213.00;;;;5065572;28;20556;-63
2022/06/01 01:13:49;;;;;;;0.57;0.57;;;11.30;99.90;11.60;101225.00;;;;5034598;28;20176;-63
2022/06/01 01:16:16;;;;;;;0.80;0.80;;;11.50;99.90;11.50;101215.00;;;;5066519;28;20185;-62
2022/06/01 01:18:45;;;;;;;1.90;0.70;;;11.70;99.90;11.00;101221.00;;;;5033959;28;20186;-62
2022/06/01 01:22:03;;;;;;;0.70;0.70;;;11.40;99.90;10.10;101225.00;;;;5049730;28;20236;-63
2022/06/01 01:25:17;;;;;;;1.33;1.33;;;11.00;99.90;10.30;101235.00;;;;5065434;28;20178;-63
2022/06/01 01:27:48;;;;;;;0.90;0.83;;;10.90;99.90;10.00;101217.00;;;;5034712;28;20165;-63
2022/06/01 01:30:31;;;;;;;0.60;0.60;;;10.70;99.90;10.10;101227.00;;;;5066261;28;20183;-63
2022/06/01 01:32:57;;;;;;;0.60;0.60;;;10.60;99.90;10.30;101225.00;;;;5034110;28;20210;-63
2022/06/01 01:35:23;;;;;;;0.50;0.50;;;10.70;99.90;10.10;101228.00;;;;5034027;28;20201;-63
2022/06/01 01:37:53;;;;;;;0.60;0.60;;;10.60;99.90;10.10;101232.00;;;;5064942;28;20206;-63
2022/06/01 01:40:21;;;;;;;0.50;0.50;;;10.60;99.90;10.20;101228.00;;;;5032541;28;20175;-63
2022/06/01 01:42:53;;;;;;;0.40;0.40;;;10.60;99.90;10.10;101218.00;;;;5034121;28;20261;-63
2022/06/01 01:45:27;;;;;;;0.50;0.50;;;10.60;99.90;10.60;101206.00;;;;5032644;28;20188;-63
2022/06/01 01:47:54;;;;;;;0.50;0.50;;;10.70;99.90;10.70;101224.00;;;;5032838;28;20720;-63
2022/06/01 01:50:22;;;;;;;0.60;0.60;;;11.00;99.90;10.80;101239.00;;;;5033688;28;20181;-63
2022/06/01 01:52:48;;;;;;;3.50;1.83;;;11.10;99.90;10.90;101234.00;;;;5048674;28;20204;-63
2022/06/01 01:55:53;;;;;;;2.00;1.90;;;11.00;99.90;11.20;101222.00;;;;5033659;28;20159;-62
2022/06/01 01:58:43;;;;;;;1.37;1.27;;;11.20;99.90;11.10;101225.00;;;;5032156;28;20196;-63
2022/06/01 02:01:21;;;;;;;0.50;0.50;;;11.30;99.90;11.30;101210.00;;;;5065446;28;20589;-63
2022/06/01 02:03:59;;;;;;;0.50;0.50;;;11.30;99.90;11.20;101217.00;;;;5065120;28;20615;-62
2022/06/01 02:06:38;;;;;;;0.60;0.60;;;11.30;99.90;10.80;101215.00;;;;5065426;28;20175;-63
2022/06/01 02:09:08;;;;;;;0.50;0.50;;;11.30;99.90;10.50;101219.00;;;;5064354;28;20162;-62
2022/06/01 02:14:38;;;;;;;0.50;0.50;;;11.00;99.90;10.40;101214.00;;;;5060651;28;20190;-63
2022/06/01 02:17:09;;;;;;;0.60;0.60;;;10.80;99.90;10.10;101214.00;;;;5032858;28;20171;-63
2022/06/01 02:19:45;;;;;;;0.50;0.50;;;10.60;99.90;9.80;101225.00;;;;5033449;28;20696;-62
2022/06/01 02:22:15;;;;;;;0.60;0.60;;;10.40;99.90;9.90;101220.00;;;;5033152;28;20184;-63
2022/06/01 02:24:42;;;;;;;0.50;0.50;;;10.30;99.90;9.80;101187.00;;;;5048690;28;20615;-62
2022/06/01 02:27:11;;;;;;;0.63;0.63;;;10.30;99.90;9.80;101219.00;;;;5032488;28;20237;-62
2022/06/01 02:29:50;;;;;;;0.47;0.47;;;10.20;99.90;9.60;101188.00;;;;5032944;28;20174;-62
2022/06/01 02:32:17;;;;;;;0.50;0.50;;;10.10;99.90;10.00;101215.00;;;;5032830;28;20299;-62
2022/06/01 02:34:45;;;;;;;0.50;0.50;;;10.20;99.90;10.10;101215.00;;;;5065203;28;20566;-62
2022/06/01 02:37:17;;;;;;;0.60;0.60;;;10.30;99.90;10.10;101220.00;;;;5064814;28;20186;-62
2022/06/01 02:39:52;;;;;;;0.60;0.60;;;10.30;99.90;10.30;101174.00;;;;5064269;28;20221;-62
2022/06/01 02:42:28;;;;;;;0.50;0.50;;;10.50;99.90;10.50;101202.00;;;;5064482;28;20240;-62
2022/06/01 02:45:02;;;;;;;0.60;0.60;;;10.60;99.90;10.30;101214.00;;;;5033317;28;20225;-63
2022/06/01 02:47:31;;;;;;;0.60;0.60;;;10.60;99.90;10.50;101208.00;;;;5032279;28;20260;-63
2022/06/01 02:50:00;;;;;;;0.50;0.50;;;10.60;99.90;10.80;101196.00;;;;5065091;28;20262;-62
2022/06/01 02:52:28;;;;;;;0.87;0.87;;;10.80;99.90;11.10;101213.00;;;;5063564;28;20670;-62
2022/06/01 02:54:54;;;;;;;0.50;0.50;;;11.10;99.90;10.80;101215.00;;;;5048646;28;20170;-63
2022/06/01 02:57:21;;;;;;;0.60;0.60;;;11.10;99.90;11.00;101204.00;;;;5032451;28;20186;-63
2022/06/01 02:59:50;;;;;;;0.57;0.57;;;11.20;99.90;10.80;101205.00;;;;5065429;28;20576;-63
2022/06/01 03:02:17;;;;;;;0.50;0.50;;;11.10;99.90;10.70;101176.00;;;;5032418;28;20186;-62
2022/06/01 03:04:44;;;;;;;0.60;0.60;;;10.90;99.90;10.50;101174.00;;;;5032828;28;20182;-62
2022/06/01 03:07:12;;;;;;;0.60;0.60;;;10.90;99.90;10.90;101214.00;;;;5031991;28;20603;-62
2022/06/01 03:09:38;;;;;;;0.70;0.70;;;11.00;99.90;10.20;101207.00;;;;5032943;28;20576;-62
2022/06/01 03:12:06;;;;;;;0.50;0.50;;;10.80;99.90;10.20;101208.00;;;;5032702;28;20213;-62
2022/06/01 03:14:38;;;;;;;0.40;0.40;;;10.70;99.90;10.10;101210.00;;;;5033232;28;20182;-62
2022/06/01 03:17:05;;;;;;;0.57;0.57;;;10.50;99.90;10.60;101212.00;;;;5031734;28;20202;-63
2022/06/01 03:19:32;;;;;;;0.50;0.50;;;10.70;99.90;10.40;101216.00;;;;5068048;28;20191;-63
2022/06/01 03:22:01;;;;;;;0.50;0.50;;;10.60;99.90;10.50;101224.00;;;;5067324;28;20256;-63
2022/06/01 03:24:27;;;;;;;0.57;0.57;;;10.60;99.90;10.30;101220.00;;;;5036192;28;20211;-62
2022/06/01 03:26:53;;;;;;;0.50;0.50;;;10.60;99.90;10.40;101219.00;;;;5036450;28;20187;-63
2022/06/01 03:29:18;;;;;;;0.50;0.50;;;10.60;99.90;10.20;101223.00;;;;5036579;28;20181;-62
2022/06/01 03:31:48;;;;;;;0.60;0.60;;;10.50;99.90;10.60;101228.00;;;;5035348;28;20221;-63
2022/06/01 03:34:13;;;;;;;0.60;0.60;;;10.60;99.90;10.30;101184.00;;;;5035790;28;20178;-62
2022/06/01 03:36:41;;;;;;;0.60;0.60;;;10.60;99.90;10.30;101227.00;;;;5066401;28;20186;-62
2022/06/01 03:39:07;;;;;;;0.60;0.60;;;10.50;99.90;10.30;101195.00;;;;5036033;28;20662;-63
2022/06/01 03:41:35;;;;;;;0.60;0.60;;;10.50;99.90;10.70;101220.00;;;;5035910;28;20190;-63
2022/06/01 03:46:45;;;;;;;0.60;0.60;;;10.70;99.90;10.70;101216.00;;;;5036082;28;20772;-63
2022/06/01 03:49:11;;;;;;;0.70;0.70;;;10.90;99.90;10.40;101224.00;;;;5035442;28;20261;-63
2022/06/01 03:51:37;;;;;;;0.83;0.83;;;10.70;99.90;10.90;101225.00;;;;5034876;28;20711;-62
2022/06/01 03:54:06;;;;;;;0.90;0.90;;;10.90;99.90;10.30;101222.00;;;;5035400;28;20167;-63
2022/06/01 03:56:34;;;;;;;0.53;0.53;;;10.70;99.90;9.90;101228.00;;;;5035768;28;20636;-62
2022/06/01 03:59:00;;;;;;;0.70;0.70;;;10.40;99.90;10.70;101202.00;;;;5035279;28;20175;-62
2022/06/01 04:01:25;;;;;;;0.60;0.60;;;10.70;99.90;10.60;101225.00;;;;5035141;28;20183;-62
2022/06/01 04:03:51;;;;;;;0.60;0.60;;;10.80;99.90;10.50;101222.00;;;;5035463;28;20189;-63
2022/06/01 04:06:17;;;;;;;0.60;0.60;;;10.80;99.90;10.00;101220.00;;;;5034644;28;20174;-62
2022/06/01 04:08:45;;;;;;;1.43;1.43;;;10.60;99.90;10.40;101210.00;;;;5036053;28;20208;-62
2022/06/01 04:11:11;;;;;;;0.60;0.60;;;10.60;99.90;10.50;101185.00;;;;5035216;28;20182;-63
2022/06/01 04:13:37;;;;;;;1.10;1.10;;;10.70;99.90;10.60;101192.00;;;;5032457;28;20191;-63
2022/06/01 04:16:03;;;;;;;1.03;1.03;;;10.80;99.90;10.10;101228.00;;;;5035410;28;20574;-62
2022/06/01 04:18:29;;;;;;;1.20;1.10;;;10.60;99.90;9.80;101214.00;;;;5034356;28;20523;-62
2022/06/01 04:20:56;;;;;;;0.97;0.97;;;10.30;99.90;9.50;101230.00;;;;5034957;28;20261;-62
2022/06/01 04:23:24;;;;;;;0.83;0.83;;;10.20;99.90;9.90;101230.00;;;;5035265;28;20229;-62
2022/06/01 04:25:53;;;;;;;1.10;1.10;;;10.20;99.90;10.20;101205.00;;;;5035559;28;20180;-62
2022/06/01 04:28:18;;;;;;;1.10;1.00;;;10.40;99.90;10.00;101193.00;;;;5033975;28;20190;-62
2022/06/01 04:30:44;;;;;;;0.50;0.50;;;10.50;99.90;9.90;101186.00;;;;5032713;28;20175;-63
2022/06/01 04:33:10;;;;;;;0.40;0.40;;;10.50;99.90;10.90;101183.00;;;;5034459;28;20214;-63
2022/06/01 04:35:38;;;;;;;0.40;0.40;;;11.00;99.90;11.80;101221.00;;;;5033934;28;20179;-60
2022/06/01 04:38:13;;;;;;;0.30;0.30;;;11.70;99.90;11.10;101225.00;;;;5033777;28;20670;-60
2022/06/01 04:40:57;;;;;;;1.33;1.33;;;11.70;99.90;11.90;101216.00;;;;5033764;28;20182;-60
2022/06/01 04:43:23;;;;;;;0.90;0.90;;;12.20;99.90;12.40;101199.00;;;;5034488;28;20164;-60
2022/06/01 04:45:54;;;;;;;0.20;0.20;;;12.40;99.90;12.40;101190.00;;;;5033644;28;20223;-60
2022/06/01 04:48:22;;;;;;;0.20;0.20;;;12.70;99.90;12.50;101213.00;;;;5034711;28;20645;-60
2022/06/01 04:50:48;;;;;;;0.20;0.20;;;12.70;99.90;12.20;101217.00;;;;5034528;28;20569;-60
2022/06/01 04:53:17;;;;;;;0.20;0.20;;;12.60;99.90;14.70;101212.00;;;;5033564;28;20543;-60
2022/06/01 04:55:44;;;;;;;0.37;0.37;;;13.90;99.90;14.50;101203.00;;;;5034704;28;20195;-60
2022/06/01 04:58:11;;;;;;;0.50;0.50;;;14.20;99.90;14.70;101199.00;;;;5033805;28;20180;-61
2022/06/01 05:00:38;;;;;;;0.20;0.20;;;14.70;99.90;15.60;101203.00;;;;5034450;28;20189;-62
2022/06/01 05:03:09;;;;;;;0.50;0.50;;;15.30;99.90;13.00;101183.00;;;;5034315;28;20189;-60
2022/06/01 05:05:39;;;;;;;0.50;0.50;;;14.30;99.90;14.70;101192.00;;;;5034700;28;20183;-62
2022/06/01 05:08:10;;;;;;;1.13;1.07;;;14.70;99.90;13.20;101179.00;;;;5035034;28;20166;-63
2022/06/01 05:10:40;;;;;;;0.43;0.43;;;14.20;99.90;12.30;101186.00;;;;5033278;28;20163;-60
2022/06/01 05:13:06;;;;;;;0.20;0.20;;;13.30;99.90;11.80;101202.00;;;;5033590;28;20199;-59
2022/06/01 05:15:32;;;;;;;0.30;0.30;;;12.50;99.90;11.90;101216.00;;;;5034082;28;20194;-59
2022/06/01 05:17:58;;;;;;;0.30;0.30;;;12.40;99.90;11.90;101227.00;;;;5031855;28;20217;-61
2022/06/01 05:20:24;;;;;;;0.33;0.33;;;12.40;99.90;12.40;101230.00;;;;5033153;28;20213;-61
2022/06/01 05:22:50;;;;;;;0.30;0.30;;;12.60;99.90;11.50;101231.00;;;;5016536;28;20562;-61
2022/06/01 05:25:16;;;;;;;0.30;0.30;;;12.30;99.90;12.00;101211.00;;;;5034246;28;20177;-61
2022/06/01 05:27:42;;;;;;;0.20;0.20;;;12.30;99.90;12.60;101235.00;;;;5034170;28;20578;-61
2022/06/01 05:30:09;;;;;;;0.20;0.20;;;12.80;99.90;12.50;101228.00;;;;5033146;28;20183;-61
2022/06/01 05:32:35;;;;;;;0.20;0.20;;;13.00;99.90;13.00;101229.00;;;;5033682;28;20227;-61
2022/06/01 05:35:00;;;;;;;0.20;0.20;;;13.20;99.90;13.50;101196.00;;;;5034052;28;20176;-61
2022/06/01 05:37:27;;;;;;;0.20;0.20;;;13.70;99.90;13.90;101204.00;;;;5032939;28;20184;-61
2022/06/01 05:39:53;;;;;;;0.10;0.10;;;14.00;99.90;15.60;101220.00;;;;5033527;28;20172;-62
2022/06/01 05:42:21;;;;;;;0.13;0.13;;;15.00;99.90;14.90;101196.00;;;;5032688;28;20656;-62
2022/06/01 05:44:50;;;;;;;0.40;0.40;;;15.60;99.90;14.20;101203.00;;;;5033546;28;20574;-61
2022/06/01 05:47:16;;;;;;;0.10;0.10;;;15.10;99.90;16.10;101213.00;;;;5032475;28;20262;-62
2022/06/01 05:49:41;;;;;;;1.20;1.00;;;16.10;99.90;15.50;101205.00;;;;5033701;28;20214;-62
2022/06/01 05:52:10;;;;;;;0.10;0.10;;;16.40;99.90;15.50;101212.00;;;;5033536;28;20533;-61
2022/06/01 05:54:36;;;;;;;0.67;0.67;;;15.80;99.90;16.10;101195.00;;;;5033360;28;20174;-61
2022/06/01 05:57:02;;;;;;;0.20;0.20;;;16.30;99.90;14.50;101214.00;;;;5032683;28;20232;-61
2022/06/01 05:59:28;;;;;;;0.40;0.40;;;15.70;99.90;14.20;101221.00;;;;5033698;28;20179;-61
2022/06/01 06:01:54;;;;;;;0.10;0.10;;;15.00;99.90;13.80;101225.00;;;;5033011;28;20289;-61
2022/06/01 06:04:19;;;;;;;0.40;0.40;;;14.60;99.90;14.60;101245.00;;;;5033369;28;20182;-61
2022/06/01 06:06:45;;;;;;;1.73;1.20;;;14.80;99.90;13.50;101211.00;;;;5032821;28;20231;-61
2022/06/01 06:09:13;;;;;;;0.23;0.23;;;14.30;99.90;12.80;101254.00;;;;5032887;28;20207;-60
2022/06/01 06:11:40;;;;;;;0.47;0.47;;;13.70;99.90;13.40;101265.00;;;;5033119;28;20192;-61
2022/06/01 06:14:08;;;;;;;0.83;0.40;;;13.90;99.90;12.70;101271.00;;;;5032741;28;20201;-61
2022/06/01 06:16:43;;;;;;;1.53;0.83;;;13.50;99.90;11.90;101278.00;;;;5032613;28;20175;-61
2022/06/01 06:19:10;;;;;;;0.30;0.30;;;13.00;99.90;11.60;101278.00;;;;5032154;28;20180;-61
2022/06/01 06:21:36;;;;;;;1.90;1.80;;;12.50;99.90;12.80;101282.00;;;;5032173;28;20184;-61
2022/06/01 06:24:13;;;;;;;4.13;0.80;;;12.80;99.90;12.80;101293.00;;;;5033188;28;20535;-61
2022/06/01 06:26:42;;;;;;;0.90;0.90;;;13.10;99.90;12.70;101289.00;;;;5016109;28;20203;-61
2022/06/01 06:29:11;;;;;;;1.13;1.03;;;13.20;99.90;12.80;101270.00;;;;5031075;28;20182;-61
2022/06/01 06:31:38;;;;;;;0.20;0.20;;;13.30;99.90;13.10;101288.00;;;;5032189;28;20268;-61
2022/06/01 06:34:07;;;;;;;1.37;1.37;;;13.40;99.90;12.70;101292.00;;;;5032936;28;20241;-62
2022/06/01 06:36:33;;;;;;;0.20;0.20;;;13.50;99.90;13.90;101290.00;;;;5015603;28;20653;-61
2022/06/01 06:38:59;;;;;;;0.20;0.20;;;14.00;99.90;14.00;101276.00;;;;5024349;28;20197;-61
2022/06/01 06:41:25;;;;;;;0.83;0.83;;;14.50;99.90;13.70;101285.00;;;;5033169;28;20191;-61
2022/06/01 06:43:54;;;;;;;2.13;2.00;;;14.20;99.90;13.50;101285.00;;;;5018562;28;20247;-61
2022/06/01 06:46:26;;;;;;;1.53;1.23;;;14.00;99.90;13.50;101297.00;;;;5013165;28;20516;-61
2022/06/01 06:48:52;;;;;;;0.87;0.87;;;13.90;99.90;13.90;101280.00;;;;5013209;28;20291;-61
2022/06/01 06:51:20;;;;;;;1.17;1.17;;;14.30;99.90;13.70;101289.00;;;;5013026;28;20178;-61
2022/06/01 06:53:46;;;;;;;2.10;1.07;;;14.00;99.90;13.50;101293.00;;;;5018005;28;20198;-61
2022/06/01 06:56:13;;;;;;;0.20;0.20;;;14.10;99.90;13.20;101304.00;;;;5017355;28;20253;-60
2022/06/01 06:58:40;;;;;;;0.20;0.20;;;14.00;99.90;13.20;101272.00;;;;5025760;28;20220;-60
2022/06/01 07:01:06;;;;;;;2.10;2.00;;;13.90;99.90;15.00;101306.00;;;;5033484;28;20231;-60
2022/06/01 07:03:32;;;;;;;2.37;2.00;;;14.70;99.90;14.80;101297.00;;;;5036621;28;20251;-61
2022/06/01 07:06:14;;;;;;;1.27;1.20;;;15.10;99.90;15.60;101307.00;;;;5037105;28;20648;-61
2022/06/01 07:08:47;;;;;;;1.07;1.07;;;15.80;99.90;16.50;101261.00;;;;5036681;28;20177;-61
2022/06/01 07:11:18;;;;;;;1.57;1.47;;;16.80;99.90;17.10;101285.00;;;;5036600;28;20215;-61
2022/06/01 07:13:46;;;;;;;1.50;1.40;;;17.30;99.90;17.60;101295.00;;;;5036180;28;20184;-60
2022/06/01 07:16:14;;;;;;;0.43;0.43;;;17.80;99.90;16.90;101251.00;;;;5036795;28;20207;-61
2022/06/01 07:18:45;;;;;;;1.07;0.97;;;17.40;99.90;16.10;101277.00;;;;5036570;28;20543;-61
2022/06/01 07:21:11;;;;;;;1.30;0.57;;;17.20;99.90;15.20;101279.00;;;;5036334;28;20203;-61
2022/06/01 07:23:42;;;;;;;2.20;2.10;;;16.50;99.90;15.80;101278.00;;;;5036322;28;20185;-61
2022/06/01 07:26:12;;;;;;;0.67;0.67;;;16.50;99.90;15.40;101291.00;;;;5036526;28;20174;-61
2022/06/01 07:28:38;;;;;;;3.03;1.60;;;16.60;99.90;16.80;101300.00;;;;5035321;28;20568;-61
2022/06/01 07:31:06;;;;;;;1.33;1.27;;;17.10;99.90;17.50;101299.00;;;;5036031;28;20255;-62
2022/06/01 07:33:34;;;;;;;0.85;0.85;;;17.40;99.90;16.20;101293.00;;;;5051174;28;20190;-62
2022/06/01 07:36:05;;;;;;;0.13;0.13;;;17.50;99.90;16.20;101288.00;;;;5035849;28;20174;-60
2022/06/01 07:44:17;;;;;;;0.50;0.50;;;17.00;99.90;14.70;101302.00;;;;5036050;28;20237;-62
2022/06/01 07:46:43;;;;;;;1.03;1.03;;;16.00;99.90;15.00;101316.00;;;;5036151;28;20175;-63
2022/06/01 07:49:11;;;;;;;0.40;0.40;;;15.70;99.90;15.30;101311.00;;;;5035824;28;20678;-62
2022/06/01 07:51:38;;;;;;;1.77;1.17;;;15.70;99.90;15.50;101312.00;;;;5029098;28;20211;-59
2022/06/01 07:54:05;;;;;;;1.40;1.03;;;15.90;99.90;15.30;101309.00;;;;5031083;28;20185;-59
2022/06/01 07:56:30;;;;;;;0.77;0.77;;;15.80;99.90;15.20;101309.00;;;;5035564;28;20170;-59
2022/06/01 07:58:56;;;;;;;4.30;2.37;;;15.80;99.90;16.70;101316.00;;;;5018501;28;20181;-61
2022/06/01 08:01:26;;;;;;;1.00;0.93;;;16.80;99.90;15.70;101303.00;;;;5034647;28;20193;-61
2022/06/01 08:03:57;;;;;;;1.30;1.03;;;16.60;99.90;15.20;101305.00;;;;5035302;28;20172;-61
2022/06/01 08:06:24;;;;;;;0.80;0.80;;;16.10;99.90;15.70;101315.00;;;;5034785;28;20412;-60
2022/06/01 08:08:50;;;;;;;2.73;2.03;;;16.10;99.90;16.10;101271.00;;;;5034754;28;20545;-60
2022/06/01 08:11:16;;;;;;;1.60;1.50;;;16.60;99.90;15.30;101305.00;;;;5031587;28;20189;-60
2022/06/01 08:13:42;;;;;;;4.37;1.70;;;16.10;99.90;15.30;101308.00;;;;5028797;28;20701;-60
2022/06/01 08:16:08;;;;;;;0.10;0.10;;;16.10;99.90;15.20;101312.00;;;;5015864;28;20176;-59
2022/06/01 08:18:35;;;;;;;2.03;1.37;;;15.90;99.90;14.70;101277.00;;;;5015829;28;20216;-59
2022/06/01 08:21:01;;;;;;;1.73;1.63;;;15.50;99.90;15.70;101326.00;;;;5016690;28;20178;-60
2022/06/01 08:23:30;;;;;;;0.60;0.60;;;15.80;99.90;16.10;101285.00;;;;5035361;28;20199;-60
2022/06/01 08:25:59;;;;;;;4.30;3.27;;;16.50;99.90;15.60;101306.00;;;;5034848;28;20575;-60
2022/06/01 08:28:26;;;;;;;0.77;0.77;;;16.30;99.90;16.40;101325.00;;;;5032040;28;20658;-61
2022/06/01 08:30:52;;;;;;;4.30;2.37;;;16.70;99.90;17.00;101330.00;;;;5050200;28;20212;-61
2022/06/01 08:33:18;;;;;;;0.60;0.60;;;17.40;99.90;17.10;101324.00;;;;5048843;28;20224;-61
2022/06/01 08:35:52;;;;;;;2.77;1.60;;;17.40;99.90;17.60;101337.00;;;;5050424;28;20647;-61
2022/06/01 08:38:19;;;;;;;2.07;1.87;;;18.10;99.90;16.70;101326.00;;;;5034639;28;20182;-61
2022/06/01 08:40:48;;;;;;;0.80;0.80;;;17.30;99.90;16.00;101335.00;;;;5049549;28;20229;-61
2022/06/01 08:43:17;;;;;;;0.20;0.20;;;16.90;99.90;17.50;101342.00;;;;5034832;28;20205;-61
2022/06/01 08:45:49;;;;;;;1.33;1.17;;;17.30;99.90;16.90;101352.00;;;;5028536;28;20189;-61
2022/06/01 08:48:22;;;;;;;1.27;1.20;;;17.60;99.90;17.10;101352.00;;;;5033675;28;20187;-62
2022/06/01 08:50:49;;;;;;;14.83;0.80;;;17.40;99.90;18.10;101409.00;;;;5033898;28;20209;-62
2022/06/01 08:53:15;;;;;;;1.53;1.43;;;18.00;99.90;18.10;101413.00;;;;5035001;28;20196;-62
2022/06/01 08:55:51;;;;;;;0.10;0.10;;;18.20;99.90;17.50;101385.00;;;;5033512;28;20180;-62
2022/06/01 08:58:35;;;;;;;1.50;1.40;;;17.90;99.90;18.50;101433.00;;;;5033552;28;20274;-64
2022/06/01 09:01:50;;;;;;;1.13;1.05;;;18.60;99.90;17.70;101432.00;;;;5033983;28;20246;-63
2022/06/01 09:04:30;;;;;;;4.65;3.05;;;18.60;99.90;17.80;101448.00;;;;5049320;28;20171;-61
2022/06/01 09:07:24;;;;;;;2.88;2.50;;;18.40;99.90;17.90;101462.00;;;;5050098;28;20175;-61
2022/06/01 09:10:35;;;;;;;4.20;3.83;;;18.50;99.90;17.10;101445.00;;;;5034130;28;20652;-61
2022/06/01 09:13:23;;;;;;;4.27;2.43;;;17.60;99.90;17.70;101446.00;;;;5049379;28;20621;-61
2022/06/01 09:16:15;;;;;;;3.23;2.43;;;17.80;99.90;16.70;101438.00;;;;5048928;28;20186;-62
2022/06/01 09:18:51;;;;;;;1.43;1.33;;;17.30;99.90;16.70;101419.00;;;;5032233;28;20579;-61
2022/06/01 09:24:12;;;;;;;0.53;0.53;;;17.30;99.90;18.60;101461.00;;;;5033943;28;20205;-61
2022/06/01 09:26:59;;;;;;;0.10;0.10;;;18.00;99.90;18.70;101484.00;;;;5033329;28;20216;-61
2022/06/01 09:29:32;;;;;;;0.10;0.10;;;18.50;99.90;19.20;101498.00;;;;5033152;28;20191;-61
2022/06/01 09:32:08;;;;;;;2.73;2.37;;;18.80;99.90;18.60;101497.00;;;;5048817;28;20227;-62
2022/06/01 09:34:50;;;;;;;0.10;0.10;;;18.80;99.90;19.00;101498.00;;;;5033963;28;20180;-61
2022/06/01 09:37:31;;;;;;;2.00;1.80;;;18.80;99.90;17.30;101482.00;;;;5033917;28;20167;-61
2022/06/01 09:40:01;;;;;;;3.73;2.37;;;17.90;99.90;16.50;101434.00;;;;5033700;28;20609;-61
2022/06/01 09:42:39;;;;;;;1.70;1.60;;;16.90;99.90;16.70;101385.00;;;;5032562;28;20278;-62
2022/06/01 09:45:21;;;;;;;0.67;0.67;;;16.90;99.90;16.80;101389.00;;;;5033513;28;20525;-62
2022/06/01 09:47:47;;;;;;;3.33;3.03;;;16.90;99.90;15.90;101372.00;;;;5033604;28;20223;-62
2022/06/01 09:50:29;;;;;;;1.67;1.57;;;16.30;99.90;15.80;101370.00;;;;5049025;28;20621;-61
2022/06/01 09:53:16;;;;;;;3.13;2.43;;;16.20;99.90;15.70;101373.00;;;;5032508;28;20208;-64
2022/06/01 09:55:58;;;;;;;2.13;1.97;;;16.00;99.90;15.30;101334.00;;;;5049151;28;20611;-62
2022/06/01 10:07:29;;;;;;;1.60;0.87;;;16.00;99.90;16.50;101402.00;;;;5036603;28;20239;-62
2022/06/01 10:10:04;;;;;;;1.20;1.10;;;16.60;99.90;16.70;101430.00;;;;5032568;28;20240;-62
2022/06/01 10:12:34;;;;;;;0.20;0.20;;;16.90;99.90;16.90;101444.00;;;;5031158;28;20247;-63
2022/06/01 10:15:03;;;;;;;2.23;1.27;;;17.20;99.90;17.60;101469.00;;;;5032230;28;20175;-63
2022/06/01 10:17:34;;;;;;;0.83;0.83;;;17.60;99.90;17.70;101464.00;;;;5032263;28;20215;-63
2022/06/01 10:20:22;;;;;;;0.30;0.30;;;17.60;99.90;17.80;101469.00;;;;5031559;28;20176;-63
2022/06/01 10:33:18;;;;;;;1.00;0.90;;;16.70;99.90;14.90;101423.00;;;;5114572;27;1280354;-63
2022/06/01 10:36:10;;;;;;;0.53;0.50;;;15.90;99.90;14.10;101365.00;;;;5130081;28;20534;-63
2022/06/01 10:39:11;;;;;;;1.73;1.20;;;14.90;99.90;13.40;101388.00;;;;5130452;28;20623;-63
2022/06/01 10:42:02;;;;;;;0.20;0.20;;;14.60;99.90;13.80;101385.00;;;;5125722;28;20191;-63
2022/06/01 10:44:43;;;;;;;0.50;0.23;;;14.50;99.90;13.80;101392.00;;;;5128653;28;20185;-63
2022/06/01 10:47:18;;;;;;;0.17;0.17;;;14.40;99.90;14.70;101402.00;;;;5119926;28;20183;-63
2022/06/01 10:49:58;;;;;;;0.10;0.10;;;14.80;99.90;15.60;101421.00;;;;5110967;28;20184;-63
2022/06/01 10:52:33;;;;;;;0.20;0.20;;;15.60;99.90;14.80;101421.00;;;;5107650;28;20690;-63
2022/06/01 10:55:19;;;;;;;0.20;0.20;;;15.60;99.90;15.60;101430.00;;;;5092267;28;20652;-63
2022/06/01 10:57:47;;;;;;;0.10;0.10;;;15.70;99.90;16.10;101459.00;;;;5109851;28;20182;-63
2022/06/01 11:00:18;;;;;;;0.33;0.33;;;16.10;99.90;16.00;101469.00;;;;5109491;28;20183;-63
2022/06/01 11:03:16;;;;;;;0.10;0.10;;;16.40;99.90;16.20;101489.00;;;;5109499;28;20197;-63
2022/06/01 11:06:07;;;;;;;0.10;0.10;;;16.50;99.90;16.80;101490.00;;;;5110257;28;20187;-63
2022/06/01 11:08:37;;;;;;;0.53;0.53;;;16.60;99.90;17.30;101527.00;;;;5110733;28;20576;-64
2022/06/01 11:11:24;;;;;;;0.57;0.57;;;17.30;99.90;16.20;101505.00;;;;5110056;28;20200;-63
2022/06/01 11:14:13;;;;;;;0.50;0.50;;;16.90;99.90;16.20;101500.00;;;;5108985;28;20237;-63
2022/06/01 11:16:56;;;;;;;0.50;0.43;;;16.40;99.90;15.90;101494.00;;;;5109169;28;20173;-63
2022/06/01 11:19:59;;;;;;;0.60;0.60;;;16.30;99.90;17.30;101501.00;;;;5108752;28;20187;-63
2022/06/01 11:23:02;;;;;;;0.30;0.30;;;16.80;99.90;15.80;101454.00;;;;5110223;28;20638;-63
2022/06/01 11:26:29;;;;;;;2.20;0.77;;;16.50;99.90;15.00;101418.00;;;;5109264;28;20233;-63
2022/06/01 11:29:24;;;;;;;7.57;0.70;;;15.60;99.90;14.60;101406.00;;;;5024820;28;20195;-63
2022/06/01 11:31:52;;;;;;;0.30;0.30;;;15.20;99.90;14.90;101412.00;;;;5109055;28;20284;-63
2022/06/01 11:34:41;;;;;;;0.50;0.50;;;15.30;99.90;15.40;101420.00;;;;5108342;28;20715;-63
2022/06/01 11:37:22;;;;;;;0.40;0.40;;;15.50;99.90;14.80;101403.00;;;;5108832;28;20177;-63
2022/06/01 11:40:03;;;;;;;0.20;0.20;;;15.40;99.90;15.50;101428.00;;;;5108792;28;20174;-63
2022/06/01 11:42:47;;;;;;;0.20;0.20;;;15.60;99.90;15.00;101386.00;;;;5089639;28;20605;-63